Time;durP1;ratioP1;P1;durP2;ratioP2;P2;SDS_P1;SDS_P2;PMS_P1;PMS_P2;Temp;Humidity;BMP_temperature;BMP_pressure;BME280_temperature;BME280_humidity;BME280_pressure;Samples;Min_cycle;Max_cycle;Signal;HPM_P1;HPM_P2
2022/11/13 00:01:11;;;;;;;7.78;2.33;;;;;;;14.81;100.00;102848.50;5090819;28;20047;-63
2022/11/13 00:03:37;;;;;;;7.45;2.10;;;;;;;14.78;100.00;102849.69;5100170;28;20020;-63
2022/11/13 00:06:02;;;;;;;13.85;2.40;;;;;;;14.73;100.00;102838.53;5112739;28;20490;-64
2022/11/13 00:08:28;;;;;;;7.40;2.13;;;;;;;14.79;100.00;102842.41;5088793;28;20031;-63
2022/11/13 00:11:02;;;;;;;7.05;1.80;;;;;;;14.72;100.00;102827.88;5112545;28;20031;-64
2022/11/13 00:13:27;;;;;;;9.13;2.05;;;;;;;14.65;100.00;102824.19;5090105;28;20062;-63
2022/11/13 00:15:58;;;;;;;5.82;1.70;;;;;;;14.66;100.00;102825.88;5104407;28;20368;-62
2022/11/13 00:18:28;;;;;;;6.90;1.67;;;;;;;14.62;100.00;102813.72;5106226;28;20451;-64
2022/11/13 00:20:55;;;;;;;6.35;1.52;;;;;;;14.76;100.00;102834.63;5078993;28;20024;-63
2022/11/13 00:23:21;;;;;;;5.55;1.60;;;;;;;14.73;100.00;102821.44;5099548;28;20033;-85
2022/11/13 00:25:46;;;;;;;6.90;1.90;;;;;;;14.76;100.00;102834.63;5095528;28;20027;-82
2022/11/13 00:28:12;;;;;;;11.27;2.40;;;;;;;14.76;100.00;102832.75;5101345;28;20032;-65
2022/11/13 00:30:37;;;;;;;9.43;2.58;;;;;;;14.75;100.00;102836.50;5121868;28;20055;-68
2022/11/13 00:33:02;;;;;;;11.20;2.60;;;;;;;14.75;100.00;102833.78;5091380;28;20032;-65
2022/11/13 00:35:28;;;;;;;11.32;2.47;;;;;;;14.77;100.00;102833.63;5117937;28;20035;-68
2022/11/13 00:37:53;;;;;;;11.95;2.80;;;;;;;14.77;100.00;102844.47;5098819;28;20455;-64
2022/11/13 00:40:19;;;;;;;14.50;3.05;;;;;;;14.78;100.00;102843.44;5076262;28;20028;-69
2022/11/13 00:42:44;;;;;;;12.05;2.80;;;;;;;14.79;100.00;102839.69;5122464;28;20035;-64
2022/11/13 00:45:10;;;;;;;9.65;2.78;;;;;;;14.77;100.00;102842.59;5092667;28;20039;-63
2022/11/13 00:47:35;;;;;;;9.45;3.28;;;;;;;14.75;100.00;102836.50;5118305;28;20077;-64
2022/11/13 00:50:01;;;;;;;8.80;3.05;;;;;;;14.77;100.00;102839.03;5117544;28;20147;-64
2022/11/13 00:52:26;;;;;;;10.80;3.30;;;;;;;14.76;100.00;102840.03;5111012;28;20092;-68
2022/11/13 00:54:51;;;;;;;11.25;3.53;;;;;;;14.74;100.00;102837.53;5104756;28;20140;-63
2022/11/13 00:57:17;;;;;;;13.65;3.75;;;;;;;14.76;100.00;102834.63;5106919;28;20089;-64
2022/11/13 00:59:42;;;;;;;12.43;3.70;;;;;;;14.77;100.00;102839.03;5115504;28;20479;-64
2022/11/13 01:02:08;;;;;;;13.73;3.40;;;;;;;14.76;100.00;102840.03;5112693;28;20105;-63
2022/11/13 01:04:34;;;;;;;9.60;3.33;;;;;;;14.73;100.00;102832.25;5122002;28;20059;-64
2022/11/13 01:06:59;;;;;;;11.13;3.40;;;;;;;14.75;100.00;102841.06;5091494;28;20042;-67
2022/11/13 01:09:25;;;;;;;12.55;3.72;;;;;;;14.74;100.00;102833.97;5118418;28;20036;-64
2022/11/13 01:11:50;;;;;;;11.27;3.30;;;;;;;14.75;100.00;102832.94;5098375;28;20145;-64
2022/11/13 01:14:16;;;;;;;12.13;3.38;;;;;;;14.76;100.00;102840.03;5094365;28;20055;-68
2022/11/13 01:16:41;;;;;;;9.00;3.50;;;;;;;14.71;100.00;102837.88;5123526;28;20055;-64
2022/11/13 01:19:07;;;;;;;16.42;4.00;;;;;;;14.75;100.00;102841.06;5109626;28;20038;-66
2022/11/13 01:21:32;;;;;;;13.45;3.78;;;;;;;14.75;100.00;102836.50;5117474;28;20039;-64
2022/11/13 01:23:57;;;;;;;12.15;4.18;;;;;;;14.75;100.00;102832.94;5116583;28;20027;-63
2022/11/13 01:26:28;;;;;;;12.23;3.80;;;;;;;14.74;100.00;102832.09;5109121;28;20020;-64
2022/11/13 01:28:55;;;;;;;10.38;4.38;;;;;;;14.73;100.00;102824.97;5121679;28;20024;-64
2022/11/13 01:31:25;;;;;;;13.50;4.30;;;;;;;14.79;100.00;102826.13;5092534;28;20034;-64
2022/11/13 01:33:51;;;;;;;16.70;4.88;;;;;;;14.78;100.00;102836.13;5096449;28;20508;-64
2022/11/13 01:36:20;;;;;;;20.67;5.43;;;;;;;14.77;100.00;102830.91;5100387;28;20091;-69
2022/11/13 01:38:46;;;;;;;11.75;5.30;;;;;;;14.75;100.00;102824.81;5090736;28;20048;-65
2022/11/13 01:41:17;;;;;;;18.67;5.60;;;;;;;14.82;100.00;102831.22;5120912;28;20028;-64
2022/11/13 01:43:42;;;;;;;14.77;5.75;;;;;;;14.82;100.00;102824.94;5114421;28;20035;-63
2022/11/13 01:46:32;;;;;;;15.80;6.07;;;;;;;14.85;100.00;102825.44;5094083;28;20060;-63
2022/11/13 01:49:14;;;;;;;18.45;6.30;;;;;;;14.68;100.00;102789.44;5103197;28;20087;-64
2022/11/13 01:51:54;;;;;;;13.73;5.38;;;;;;;14.83;100.00;102816.63;5113625;28;20106;-63
2022/11/13 01:54:25;;;;;;;15.30;6.18;;;;;;;14.86;100.00;102815.44;5091519;28;20036;-63
2022/11/13 01:56:52;;;;;;;15.77;6.28;;;;;;;14.86;100.00;102820.84;5121357;28;20032;-63
2022/11/13 01:59:21;;;;;;;16.75;6.78;;;;;;;14.89;100.00;102815.06;5109030;28;20056;-63
2022/11/13 02:01:47;;;;;;;19.38;6.20;;;;;;;14.88;100.00;102806.09;5113941;28;20067;-64
2022/11/13 02:04:12;;;;;;;15.32;6.25;;;;;;;14.93;100.00;102806.44;5116795;28;20031;-68
2022/11/13 02:07:08;;;;;;;14.35;6.40;;;;;;;14.87;100.00;102790.88;5107910;28;20043;-64
2022/11/13 02:09:45;;;;;;;18.52;7.20;;;;;;;14.90;100.00;102804.06;5113617;28;20063;-67
2022/11/13 02:12:14;;;;;;;16.40;6.55;;;;;;;14.89;100.00;102796.09;5096984;28;20027;-64
2022/11/13 02:14:43;;;;;;;17.17;6.50;;;;;;;14.85;100.00;102797.50;5106317;28;20039;-66
2022/11/13 02:17:13;;;;;;;14.38;6.65;;;;;;;14.88;100.00;102797.97;5118727;28;20036;-63
2022/11/13 02:19:43;;;;;;;13.80;6.70;;;;;;;14.71;100.00;102767.41;5111889;28;20379;-71
2022/11/13 02:22:27;;;;;;;14.38;7.00;;;;;;;14.93;100.00;102801.00;5110653;28;20036;-63
2022/11/13 02:24:54;;;;;;;11.35;6.53;;;;;;;14.93;100.00;102806.44;5118726;28;20024;-63
2022/11/13 02:27:32;;;;;;;15.43;7.07;;;;;;;14.78;100.00;102771.09;5090229;28;20039;-67
2022/11/13 02:29:57;;;;;;;13.40;7.07;;;;;;;14.94;100.00;102802.69;5112370;28;20028;-64
2022/11/13 02:32:23;;;;;;;11.90;7.03;;;;;;;14.91;100.00;102799.50;5099397;28;20038;-64
2022/11/13 02:34:48;;;;;;;12.25;7.18;;;;;;;14.93;100.00;102789.28;5088532;28;20035;-63
2022/11/13 02:37:14;;;;;;;13.00;7.30;;;;;;;14.94;100.00;102788.28;5118118;28;20031;-68
2022/11/13 02:39:39;;;;;;;11.48;7.85;;;;;;;14.76;100.00;102756.88;5110978;28;20474;-65
2022/11/13 02:42:05;;;;;;;11.88;8.15;;;;;;;14.99;100.00;102789.41;5111076;28;20152;-64
2022/11/13 02:44:30;;;;;;;13.93;8.23;;;;;;;15.00;100.00;102793.84;5118297;28;20027;-63
2022/11/13 02:46:55;;;;;;;14.00;8.23;;;;;;;15.00;100.00;102793.00;5087382;28;20083;-63
2022/11/13 02:49:21;;;;;;;14.18;8.05;;;;;;;15.02;100.00;102793.66;5099185;28;20040;-68
2022/11/13 02:51:46;;;;;;;13.75;8.35;;;;;;;15.03;100.00;102792.59;5094179;28;20043;-64
2022/11/13 02:54:11;;;;;;;15.20;9.10;;;;;;;15.06;100.00;102786.00;5110138;28;20032;-67
2022/11/13 02:56:37;;;;;;;17.92;8.73;;;;;;;15.04;100.00;102788.91;5083673;28;20032;-66
2022/11/13 02:59:02;;;;;;;18.63;9.88;;;;;;;15.07;100.00;102798.53;5091090;28;20360;-68
2022/11/13 03:01:28;;;;;;;26.45;10.63;;;;;;;14.95;100.00;102765.56;5101440;28;20074;-63
2022/11/13 03:03:53;;;;;;;21.63;10.80;;;;;;;15.08;100.00;102798.34;5116205;28;20028;-63
2022/11/13 03:06:19;;;;;;;22.00;11.25;;;;;;;15.03;100.00;102796.19;5112464;28;20131;-63
2022/11/13 03:08:44;;;;;;;35.38;13.10;;;;;;;15.06;100.00;102789.53;5104305;28;20450;-64
2022/11/13 03:11:10;;;;;;;39.95;13.65;;;;;;;15.03;100.00;102800.75;5092954;28;20062;-63
2022/11/13 03:13:37;;;;;;;46.30;13.30;;;;;;;15.00;100.00;102799.25;5118184;28;20032;-63
2022/11/13 03:16:11;;;;;;;32.03;12.93;;;;;;;15.00;100.00;102795.72;5116954;28;20057;-63
2022/11/13 03:18:36;;;;;;;55.35;14.93;;;;;;;14.99;100.00;102789.41;5109497;28;20402;-63
2022/11/13 03:21:12;;;;;;;49.95;13.38;;;;;;;15.00;100.00;102798.41;5122790;28;20031;-64
2022/11/13 03:23:40;;;;;;;53.20;14.70;;;;;;;14.98;100.00;102793.16;5114399;28;20035;-72
2022/11/13 03:26:08;;;;;;;55.38;14.45;;;;;;;14.99;100.00;102799.41;5094928;28;20490;-72
2022/11/13 03:28:34;;;;;;;44.25;12.85;;;;;;;15.00;100.00;102807.41;5102779;28;20118;-64
2022/11/13 03:31:00;;;;;;;58.33;14.10;;;;;;;15.02;100.00;102797.19;5108026;28;20543;-64
2022/11/13 03:33:25;;;;;;;79.25;15.25;;;;;;;15.01;100.00;102805.53;5117362;28;20114;-63
2022/11/13 03:35:51;;;;;;;89.32;13.68;;;;;;;14.85;100.00;102771.22;5111476;28;20104;-73
2022/11/13 03:38:16;;;;;;;103.80;16.05;;;;;;;14.99;100.00;102785.88;5067673;28;20028;-81
2022/11/13 03:40:42;;;;;;;190.65;17.35;;;;;;;14.99;100.00;102789.41;5120335;28;20059;-63
2022/11/13 03:43:07;;;;;;;116.05;15.55;;;;;;;14.97;100.00;102779.81;5108392;28;20027;-63
2022/11/13 03:45:33;;;;;;;127.18;15.55;;;;;;;14.98;100.00;102776.91;5098344;28;20032;-63
2022/11/13 03:47:58;;;;;;;111.00;14.95;;;;;;;14.96;100.00;102778.94;5115496;28;20043;-66
2022/11/13 03:50:24;;;;;;;114.85;15.57;;;;;;;14.98;100.00;102773.34;5090597;28;20028;-63
2022/11/13 03:52:49;;;;;;;97.35;14.70;;;;;;;14.55;100.00;102708.75;5101882;28;20028;-62
2022/11/13 03:55:14;;;;;;;81.07;14.52;;;;;;;14.98;100.00;102784.19;5107544;28;20156;-63
2022/11/13 03:57:40;;;;;;;80.68;14.32;;;;;;;14.96;100.00;102778.09;5095502;28;20039;-63
2022/11/13 04:00:06;;;;;;;98.82;16.30;;;;;;;14.98;100.00;102776.91;5114636;28;20440;-63
2022/11/13 04:02:31;;;;;;;69.80;15.00;;;;;;;14.99;100.00;102777.72;5108586;28;20055;-63
2022/11/13 04:04:56;;;;;;;101.93;16.42;;;;;;;14.80;100.00;102741.97;5101801;28;20405;-62
2022/11/13 04:07:22;;;;;;;112.88;15.98;;;;;;;14.94;100.00;102764.72;5109253;28;20081;-63
2022/11/13 04:09:47;;;;;;;108.80;16.10;;;;;;;14.98;100.00;102766.06;5112998;28;20047;-64
2022/11/13 04:12:13;;;;;;;96.47;15.20;;;;;;;14.99;100.00;102764.19;5096337;28;20040;-63
2022/11/13 04:14:38;;;;;;;119.25;16.67;;;;;;;14.98;100.00;102767.94;5105501;28;20047;-68
2022/11/13 04:17:03;;;;;;;114.75;16.30;;;;;;;14.95;100.00;102777.25;5098791;28;20035;-63
2022/11/13 04:19:29;;;;;;;119.43;17.73;;;;;;;14.96;100.00;102781.66;5107346;28;20031;-67
2022/11/13 04:21:54;;;;;;;335.38;23.60;;;;;;;14.96;100.00;102784.34;5110604;28;20517;-62
2022/11/13 04:24:19;;;;;;;93.90;15.80;;;;;;;15.01;100.00;102781.97;5097008;28;20037;-62
2022/11/13 04:26:45;;;;;;;70.75;14.43;;;;;;;15.06;100.00;102778.69;5104291;28;20060;-62
2022/11/13 04:29:10;;;;;;;141.05;17.63;;;;;;;15.07;100.00;102774.16;5117595;28;20032;-63
2022/11/13 04:31:35;;;;;;;59.10;14.32;;;;;;;14.97;100.00;102769.78;5108506;28;20028;-64
2022/11/13 04:34:01;;;;;;;52.50;13.57;;;;;;;15.06;100.00;102783.28;5110287;28;20040;-63
2022/11/13 04:36:26;;;;;;;239.57;18.30;;;;;;;15.10;100.00;102793.59;5080498;28;20031;-63
2022/11/13 04:38:52;;;;;;;75.50;13.68;;;;;;;15.08;100.00;102801.06;5085801;28;20036;-63
2022/11/13 04:44:01;;;;;;;160.27;17.60;;;;;;;15.10;100.00;102803.56;5097407;28;20561;-68
2022/11/13 04:46:26;;;;;;;69.28;13.65;;;;;;;15.10;100.00;102803.56;5107136;28;20127;-69
2022/11/13 04:48:52;;;;;;;37.38;12.05;;;;;;;15.07;100.00;102804.81;5099457;28;20122;-63
2022/11/13 04:51:17;;;;;;;24.52;9.18;;;;;;;14.99;100.00;102802.97;5105896;28;20083;-63
2022/11/13 04:53:42;;;;;;;14.23;5.68;;;;;;;14.96;100.00;102800.63;5111911;28;20137;-63
2022/11/13 04:56:08;;;;;;;7.20;3.42;;;;;;;14.87;100.00;102800.88;5112172;28;20039;-63
2022/11/13 04:58:34;;;;;;;6.00;3.35;;;;;;;14.83;100.00;102794.09;5104487;28;20043;-63
2022/11/13 05:00:59;;;;;;;11.32;3.75;;;;;;;14.83;100.00;102802.22;5115770;28;20085;-64
2022/11/13 05:03:24;;;;;;;9.80;3.80;;;;;;;14.81;100.00;102807.84;5105804;28;20043;-63
2022/11/13 05:05:50;;;;;;;7.57;3.35;;;;;;;14.79;100.00;102796.34;5110548;28;20032;-63
2022/11/13 05:08:15;;;;;;;9.57;3.17;;;;;;;14.80;100.00;102795.28;5112361;28;20092;-64
2022/11/13 05:10:40;;;;;;;10.52;3.33;;;;;;;14.71;100.00;102774.72;5098205;28;20043;-72
2022/11/13 05:13:06;;;;;;;8.80;3.45;;;;;;;14.83;100.00;102794.09;5094023;28;20070;-66
2022/11/13 05:15:31;;;;;;;8.05;2.80;;;;;;;14.84;100.00;102791.22;5088280;28;20050;-66
2022/11/13 05:17:56;;;;;;;8.77;2.83;;;;;;;14.83;100.00;102789.53;5108761;28;20032;-63
2022/11/13 05:20:22;;;;;;;8.32;3.10;;;;;;;14.82;100.00;102792.44;5112523;28;20035;-62
2022/11/13 05:22:47;;;;;;;4.63;2.78;;;;;;;14.80;100.00;102798.00;5102688;28;20195;-68
2022/11/13 05:25:13;;;;;;;8.93;3.03;;;;;;;14.80;100.00;102798.88;5115107;28;20036;-62
2022/11/13 05:27:41;;;;;;;7.70;3.00;;;;;;;14.78;100.00;102792.78;5087455;28;20123;-64
2022/11/13 05:30:07;;;;;;;9.13;2.83;;;;;;;14.76;100.00;102788.56;5089135;28;20079;-63
2022/11/13 05:32:32;;;;;;;9.20;3.10;;;;;;;14.75;100.00;102789.59;5113983;28;20066;-65
2022/11/13 05:34:58;;;;;;;6.70;3.20;;;;;;;14.76;100.00;102788.56;5102057;28;20119;-70
2022/11/13 05:37:23;;;;;;;9.80;3.33;;;;;;;14.64;100.00;102760.19;5095615;28;20513;-64
2022/11/13 05:39:48;;;;;;;10.98;3.72;;;;;;;14.76;100.00;102777.72;5090056;28;20115;-64
2022/11/13 05:42:14;;;;;;;9.73;3.88;;;;;;;14.75;100.00;102773.31;5071942;28;20036;-63
2022/11/13 05:44:39;;;;;;;8.52;3.47;;;;;;;14.71;100.00;102769.28;5116047;28;20099;-65
2022/11/13 05:47:05;;;;;;;7.25;3.42;;;;;;;14.55;100.00;102740.41;5100700;28;20032;-70
2022/11/13 05:49:30;;;;;;;10.23;3.97;;;;;;;14.69;100.00;102774.03;5072575;28;20051;-72
2022/11/13 05:51:56;;;;;;;8.32;3.78;;;;;;;14.51;100.00;102747.22;5111048;28;20039;-65
2022/11/13 05:54:21;;;;;;;8.70;3.85;;;;;;;14.70;100.00;102782.00;5095113;28;20031;-67
2022/11/13 05:56:46;;;;;;;9.15;3.92;;;;;;;14.71;100.00;102782.84;5103164;28;20092;-71
2022/11/13 05:59:12;;;;;;;10.23;4.00;;;;;;;14.71;100.00;102786.38;5116780;28;20073;-72
2022/11/13 06:01:39;;;;;;;6.90;3.00;;;;;;;14.65;100.00;102787.09;5107453;28;20047;-68
2022/11/13 06:04:06;;;;;;;8.07;3.58;;;;;;;14.60;100.00;102783.22;5109339;28;20032;-66
2022/11/13 06:06:32;;;;;;;7.72;3.08;;;;;;;14.60;100.00;102791.34;5115473;28;20016;-63
2022/11/13 06:09:00;;;;;;;6.40;3.20;;;;;;;14.60;100.00;102784.06;5084911;28;20036;-63
2022/11/13 06:11:47;;;;;;;7.32;2.80;;;;;;;14.53;100.00;102769.53;5118320;28;20486;-63
2022/11/13 06:14:12;;;;;;;10.30;3.05;;;;;;;14.49;100.00;102779.84;5067365;28;20045;-75
2022/11/13 06:16:39;;;;;;;7.38;2.40;;;;;;;14.49;100.00;102793.41;5042484;28;20136;-66
2022/11/13 06:19:07;;;;;;;7.50;2.65;;;;;;;14.52;100.00;102786.81;5057540;28;20051;-66
2022/11/13 06:21:34;;;;;;;11.32;2.85;;;;;;;14.44;100.00;102774.16;5064498;28;20092;-68
2022/11/13 06:24:00;;;;;;;10.00;2.60;;;;;;;14.54;100.00;102779.38;5067526;28;20071;-63
2022/11/13 06:26:28;;;;;;;5.82;2.88;;;;;;;14.35;100.00;102750.81;5034932;28;20128;-64
2022/11/13 06:28:54;;;;;;;6.47;3.00;;;;;;;14.54;100.00;102779.38;5040431;28;20495;-85
2022/11/13 06:31:28;;;;;;;6.32;3.08;;;;;;;14.61;100.00;102787.63;5057948;28;20064;-64
2022/11/13 06:33:54;;;;;;;8.88;3.70;;;;;;;14.52;100.00;102773.28;5041581;28;20127;-65
2022/11/13 06:36:39;;;;;;;10.68;4.13;;;;;;;14.65;100.00;102797.94;5054783;28;20037;-64
2022/11/13 06:39:07;;;;;;;11.57;4.03;;;;;;;14.62;100.00;102802.88;5039267;28;20523;-71
2022/11/13 06:41:32;;;;;;;10.63;4.30;;;;;;;14.48;100.00;102772.75;5050023;28;20079;-67
2022/11/13 06:43:58;;;;;;;8.43;4.13;;;;;;;14.65;100.00;102795.22;5023306;28;20128;-67
2022/11/13 06:46:26;;;;;;;9.50;4.45;;;;;;;14.69;100.00;102801.13;5064070;28;20040;-64
2022/11/13 06:48:52;;;;;;;9.93;4.55;;;;;;;14.57;100.00;102776.31;5056257;28;20059;-64
2022/11/13 06:51:20;;;;;;;10.15;4.80;;;;;;;14.71;100.00;102796.38;5043240;28;20037;-64
2022/11/13 06:53:46;;;;;;;8.93;4.95;;;;;;;14.61;100.00;102768.69;5059708;28;20045;-64
2022/11/13 06:56:12;;;;;;;11.38;4.80;;;;;;;14.73;100.00;102788.91;5059649;28;20041;-65
2022/11/13 06:58:38;;;;;;;9.30;4.57;;;;;;;14.75;100.00;102789.59;5064576;28;20111;-65
2022/11/13 07:01:08;;;;;;;9.27;4.10;;;;;;;14.77;100.00;102785.69;5063764;28;20384;-63
2022/11/13 07:03:34;;;;;;;8.27;3.90;;;;;;;14.75;100.00;102793.13;5057810;28;20037;-64
2022/11/13 07:06:02;;;;;;;8.35;4.32;;;;;;;14.76;100.00;102800.22;5059418;28;20043;-64
2022/11/13 07:08:31;;;;;;;9.93;4.75;;;;;;;14.77;100.00;102795.69;5059338;28;20037;-64
2022/11/13 07:10:57;;;;;;;12.90;5.85;;;;;;;14.76;100.00;102808.34;5108483;28;20112;-67
2022/11/13 07:13:24;;;;;;;16.17;7.03;;;;;;;14.74;100.00;102810.44;5102539;28;20035;-64
2022/11/13 07:15:49;;;;;;;15.70;6.32;;;;;;;14.75;100.00;102808.56;5084476;28;20480;-69
2022/11/13 07:18:15;;;;;;;13.52;6.78;;;;;;;14.75;100.00;102813.97;5102445;28;20062;-64
2022/11/13 07:20:40;;;;;;;11.05;6.15;;;;;;;14.76;100.00;102821.06;5107773;28;20060;-64
2022/11/13 07:23:06;;;;;;;19.02;7.78;;;;;;;14.77;100.00;102822.78;5118666;28;20040;-69
2022/11/13 07:25:31;;;;;;;15.18;7.50;;;;;;;14.78;100.00;102819.88;5074518;28;20035;-65
2022/11/13 07:27:57;;;;;;;15.15;7.03;;;;;;;14.80;100.00;102815.13;5095140;28;20052;-63
2022/11/13 07:30:22;;;;;;;13.27;6.13;;;;;;;14.85;100.00;102817.31;5096839;28;20038;-65
2022/11/13 07:32:48;;;;;;;10.38;5.28;;;;;;;14.87;100.00;102812.56;5071348;28;20048;-68
2022/11/13 07:35:15;;;;;;;12.38;4.93;;;;;;;14.92;100.00;102815.56;5116567;28;20120;-65
2022/11/13 07:37:41;;;;;;;8.10;4.70;;;;;;;14.92;100.00;102812.00;5100759;28;20032;-64
2022/11/13 07:40:07;;;;;;;12.63;5.47;;;;;;;14.82;100.00;102787.00;5100547;28;20012;-68
2022/11/13 07:42:32;;;;;;;7.75;4.22;;;;;;;14.97;100.00;102802.31;5114091;28;20024;-65
2022/11/13 07:44:58;;;;;;;14.70;4.63;;;;;;;15.01;100.00;102806.34;5104543;28;20040;-63
2022/11/13 07:47:23;;;;;;;14.02;5.22;;;;;;;15.02;100.00;102805.31;5116910;28;20036;-64
2022/11/13 07:49:49;;;;;;;9.32;4.30;;;;;;;14.99;100.00;102794.00;5109554;28;20057;-64
2022/11/13 07:52:14;;;;;;;10.70;4.68;;;;;;;14.91;100.00;102775.94;5109413;28;20487;-65
2022/11/13 07:54:40;;;;;;;9.27;4.50;;;;;;;15.07;100.00;102801.25;5117220;28;20081;-68
2022/11/13 07:57:05;;;;;;;13.32;3.92;;;;;;;15.11;100.00;102808.84;5086675;28;20039;-63
2022/11/13 07:59:31;;;;;;;7.78;4.25;;;;;;;15.12;100.00;102807.81;5116447;28;20028;-64
2022/11/13 08:01:56;;;;;;;8.95;4.60;;;;;;;15.11;100.00;102806.13;5112800;28;20055;-67
2022/11/13 08:04:22;;;;;;;14.25;5.45;;;;;;;15.14;100.00;102802.22;5075111;28;20036;-65
2022/11/13 08:06:48;;;;;;;10.80;4.63;;;;;;;15.12;100.00;102806.97;5085277;28;20059;-65
2022/11/13 08:09:14;;;;;;;7.40;4.10;;;;;;;15.13;100.00;102811.34;5108743;28;20057;-64
2022/11/13 08:11:39;;;;;;;10.20;3.83;;;;;;;15.11;100.00;102810.72;5117626;28;20028;-78
2022/11/13 08:14:04;;;;;;;11.32;3.60;;;;;;;15.11;100.00;102806.13;5070449;28;20104;-84
2022/11/13 08:16:30;;;;;;;5.60;3.78;;;;;;;15.17;100.00;102812.72;5088210;28;20128;-63
2022/11/13 08:18:55;;;;;;;13.40;4.60;;;;;;;15.13;100.00;102801.38;5102110;28;20036;-70
2022/11/13 08:21:21;;;;;;;8.60;3.90;;;;;;;15.24;100.00;102811.78;5090005;28;20039;-68
2022/11/13 08:23:46;;;;;;;8.25;3.83;;;;;;;15.27;100.00;102818.72;5114987;28;20069;-65
2022/11/13 08:26:12;;;;;;;9.13;4.18;;;;;;;15.31;100.00;102814.63;5098119;28;20405;-68
2022/11/13 08:28:38;;;;;;;12.23;3.78;;;;;;;15.32;100.00;102816.31;5092151;28;20040;-67
2022/11/13 08:31:08;;;;;;;9.80;3.72;;;;;;;15.36;100.00;102811.34;5103309;28;20036;-64
2022/11/13 08:33:33;;;;;;;10.02;4.53;;;;;;;15.34;100.00;102805.28;5091627;28;20397;-64
2022/11/13 08:36:00;;;;;;;8.00;3.97;;;;;;;15.43;100.00;102823.16;5112298;28;20035;-64
2022/11/13 08:38:25;;;;;;;7.22;4.00;;;;;;;15.49;100.00;102819.72;5116926;28;20040;-63
2022/11/13 08:40:51;;;;;;;9.50;3.83;;;;;;;15.50;100.00;102824.16;5104758;28;20102;-64
2022/11/13 08:43:17;;;;;;;8.20;4.25;;;;;;;15.44;100.00;102819.44;5100196;28;20394;-65
2022/11/13 08:45:46;;;;;;;8.10;3.83;;;;;;;15.55;100.00;102834.44;5092562;28;20077;-69
2022/11/13 08:48:12;;;;;;;8.27;3.53;;;;;;;15.40;100.00;102805.41;5112258;28;20039;-64
2022/11/13 08:50:38;;;;;;;7.05;3.13;;;;;;;15.52;100.00;102835.63;5117656;28;20028;-65
2022/11/13 08:53:04;;;;;;;9.60;3.15;;;;;;;15.40;100.00;102812.69;5103943;28;20035;-68
2022/11/13 08:55:32;;;;;;;9.23;3.25;;;;;;;15.57;100.00;102835.13;5107563;28;20032;-69
2022/11/13 08:57:59;;;;;;;8.70;3.22;;;;;;;15.54;100.00;102830.03;5111305;28;20028;-65
2022/11/13 09:00:26;;;;;;;7.65;3.38;;;;;;;15.60;100.00;102834.75;5113571;28;20079;-64
2022/11/13 09:02:55;;;;;;;8.98;3.20;;;;;;;15.62;100.00;102833.50;5103105;28;20044;-66
2022/11/13 09:05:22;;;;;;;7.35;3.58;;;;;;;15.58;100.00;102825.94;5114978;28;20513;-65
2022/11/13 09:07:48;;;;;;;9.88;3.78;;;;;;;15.65;100.00;102832.31;5107617;28;20106;-65
2022/11/13 09:10:15;;;;;;;10.35;3.30;;;;;;;15.68;100.00;102838.25;5108540;28;20036;-64
2022/11/13 09:12:40;;;;;;;7.10;3.22;;;;;;;15.68;100.00;102831.97;5115292;28;20035;-65
2022/11/13 09:15:06;;;;;;;9.38;3.60;;;;;;;15.71;100.00;102839.75;5085516;28;20102;-65
2022/11/13 09:17:31;;;;;;;10.38;3.80;;;;;;;15.70;100.00;102838.91;5113934;28;20074;-67
2022/11/13 09:19:57;;;;;;;9.75;3.50;;;;;;;15.69;100.00;102841.78;5110111;28;20067;-64
2022/11/13 09:22:22;;;;;;;9.65;3.40;;;;;;;15.69;100.00;102844.50;5108120;28;20483;-64
2022/11/13 09:24:48;;;;;;;7.78;3.50;;;;;;;15.68;100.00;102843.66;5100474;28;20039;-63
2022/11/13 09:27:13;;;;;;;9.68;3.92;;;;;;;15.66;100.00;102848.47;5086709;28;20180;-63
2022/11/13 09:29:39;;;;;;;8.73;3.72;;;;;;;15.52;100.00;102822.91;5095448;28;20035;-63
2022/11/13 09:32:04;;;;;;;9.85;3.70;;;;;;;15.64;100.00;102844.19;5094357;28;20035;-63
2022/11/13 09:34:30;;;;;;;11.48;3.83;;;;;;;15.65;100.00;102843.16;5090599;28;20028;-63
2022/11/13 09:36:55;;;;;;;6.03;2.80;;;;;;;15.65;100.00;102854.03;5118895;28;20038;-63
2022/11/13 09:39:21;;;;;;;6.45;2.90;;;;;;;15.68;100.00;102842.84;5105982;28;20073;-69
2022/11/13 09:41:57;;;;;;;8.13;2.88;;;;;;;15.69;100.00;102852.66;5113117;28;20028;-63
2022/11/13 09:44:33;;;;;;;7.47;2.70;;;;;;;15.71;100.00;102854.16;5102879;28;20035;-64
2022/11/13 09:47:13;;;;;;;6.95;2.85;;;;;;;15.77;100.00;102859.91;5103229;28;20031;-70
2022/11/13 09:50:11;;;;;;;7.30;2.90;;;;;;;15.79;100.00;102855.94;5115510;28;20522;-65
2022/11/13 09:52:42;;;;;;;6.45;3.15;;;;;;;15.78;100.00;102851.56;5115725;28;20126;-63
2022/11/13 09:55:12;;;;;;;9.25;3.33;;;;;;;15.79;100.00;102842.38;5104603;28;20035;-66
2022/11/13 09:57:59;;;;;;;7.28;3.50;;;;;;;15.86;100.00;102856.94;5113547;28;20080;-64
2022/11/13 10:00:26;;;;;;;11.52;3.28;;;;;;;15.85;100.00;102857.94;5101436;28;20079;-63
2022/11/13 10:03:51;;;;;;;7.88;3.00;;;;;;;15.89;100.00;102859.28;5084658;28;20052;-64
2022/11/13 10:06:46;;;;;;;9.15;3.30;;;;;;;15.94;100.00;102861.44;5025868;28;20428;-63
2022/11/13 10:09:21;;;;;;;5.50;3.10;;;;;;;15.95;100.00;102855.81;4993899;28;20451;-63
2022/11/13 10:11:56;;;;;;;7.85;2.88;;;;;;;15.94;100.00;102861.44;5044063;28;20040;-63
2022/11/13 10:14:30;;;;;;;7.88;2.65;;;;;;;15.90;100.00;102854.69;5071918;28;20040;-68
2022/11/13 10:17:06;;;;;;;6.22;2.72;;;;;;;15.93;100.00;102857.03;5062861;28;20040;-65
2022/11/13 10:19:46;;;;;;;5.47;2.90;;;;;;;15.82;100.00;102839.31;5071425;28;20037;-65
2022/11/13 10:22:54;;;;;;;7.60;2.65;;;;;;;16.01;100.00;102864.25;5057402;28;20046;-66
2022/11/13 10:25:27;;;;;;;7.40;3.00;;;;;;;16.04;100.00;102863.88;5042538;28;20473;-65
2022/11/13 10:27:56;;;;;;;5.78;2.83;;;;;;;16.06;100.00;102859.97;5044716;28;20021;-64
2022/11/13 10:30:22;;;;;;;7.72;2.50;;;;;;;15.87;100.00;102826.03;5067846;28;20531;-63
2022/11/13 10:32:48;;;;;;;5.30;2.55;;;;;;;16.11;100.00;102862.09;5058782;28;20094;-71
2022/11/13 10:35:16;;;;;;;7.57;2.13;;;;;;;16.09;100.00;102858.72;5069906;28;20555;-64
2022/11/13 10:37:51;;;;;;;9.00;2.67;;;;;;;15.90;100.00;102850.09;5101574;28;20439;-68
2022/11/13 10:40:28;;;;;;;6.38;1.92;;;;;;;15.92;100.00;102856.16;5087202;28;20024;-71
2022/11/13 10:43:02;;;;;;;8.82;2.08;;;;;;;16.00;100.00;102857.97;5112952;28;20028;-64
2022/11/13 10:45:31;;;;;;;6.07;1.83;;;;;;;16.07;100.00;102852.66;5100655;28;20052;-67
2022/11/13 10:47:56;;;;;;;7.35;1.75;;;;;;;16.04;100.00;102853.03;5106488;28;20028;-74
2022/11/13 10:50:26;;;;;;;6.03;1.80;;;;;;;16.10;100.00;102855.84;5091798;28;20035;-65
2022/11/13 10:52:53;;;;;;;5.90;1.67;;;;;;;16.14;100.00;102853.59;5083475;28;20499;-64
2022/11/13 10:55:39;;;;;;;4.18;1.60;;;;;;;16.20;100.00;102856.41;5115049;28;20040;-63
2022/11/13 10:58:15;;;;;;;4.43;1.42;;;;;;;16.18;100.00;102857.63;5108125;28;20601;-64
2022/11/13 11:00:43;;;;;;;5.53;1.50;;;;;;;16.14;100.00;102854.44;5101794;28;20121;-64
2022/11/13 11:03:23;;;;;;;5.28;1.75;;;;;;;16.18;100.00;102849.47;5114446;28;20024;-64
2022/11/13 11:05:58;;;;;;;5.82;1.60;;;;;;;16.14;100.00;102850.88;5100320;28;20055;-65
2022/11/13 11:08:30;;;;;;;;;;;;;;;16.16;100.00;102852.38;5099469;28;20035;-65
2022/11/13 11:13:44;;;;;;;8.35;1.70;;;;;;;16.14;100.00;102845.44;5104664;28;20099;-64
2022/11/13 11:16:16;;;;;;;4.68;1.70;;;;;;;16.19;100.00;102851.13;5084851;28;20119;-78
2022/11/13 11:18:53;;;;;;;6.07;2.10;;;;;;;16.19;100.00;102845.72;5110770;28;20118;-66
2022/11/13 11:21:41;;;;;;;6.82;1.95;;;;;;;16.18;100.00;102852.19;5087772;28;20446;-64